Wallkill, New York
Current Conditions -  °F | °C
As of 7:45 PM on Tuesday 27 Jan 2015 (Local Time) from KSWF Reporting Station
Overcast Overcast  
Wind Chill:   Ceiling: 10000
Heat Index: 14°   Visibility: 10mi
Dew Point: 10°   Wind: 8mph
Humidity: 86%   Direction: 40°NE
Pressure: 29.77"   Gusts: NA
Location:  41.61°N, 74.16°W
Report Text: KSWF 280045Z 04007KT 10SM OVC100 M10/M12 A2977
Loading
Personal Weather Stations






























Interactive Weather Map New forecast layout! Learn more

10-Day Weather Forecast

Advertisements
Track Severe Weather on mobile